MET'MAP v2.0
soon released !

Expected late october,
this new version will be
more efficient, smarter,
and hosted on a brand new
server x3 powerfull...
...and still free !


Not compatible ?
Try the mobile version !

LOG IN : | Subscribe | Disclaimer | Who is Orbifly ? |
ICAO code :

TAF - LGLM Ifaistos - 28 Sep 2020 13:04 UTC - Data Source NOAA   


- Airport Elevation : 14 ft
- IATA code : LXS
- No reported NOTAMs.


LGLM - Ifaistos

Latest METAR recorded : 2015/08/11 07:50 LGLM 110750Z 02004KT CAVOK 30/16 Q1011
TAF TAF LGLM
Valid from the 28 at 09:00 until the 28 at 18:00 UTC


280800Z 2809/2818 18012KT 9999 FEW015 SCT025
PROB30
TEMPO 2813/2818 5000 RA
PROB30
TEMPO 2814/2818 3000 TSRA FEW016CB BKN020
TEMPO 2809/2815 18015G25KT

Source NOAA


MET'MAP, your aeronautical weather chart ! - Copyright ORBIFLY December 2007

Programming & Development : Alexandra Zaïnal
Co-Developer : Marc-Olivier Méhu
Technical & hardware support : Manuel Goepfert
Concept & Financing : Baudouin d'Aumeries